createdAt,value
2018-09-05T16:01:33.922Z,7.67
2018-09-05T16:04:02.128Z,7.80
2018-09-05T16:06:30.314Z,8.80
2018-09-05T16:08:58.261Z,9.10
2018-09-05T16:11:26.482Z,8.73
2018-09-05T16:13:54.425Z,8.83
2018-09-05T16:16:22.595Z,9.20
2018-09-05T16:18:50.834Z,8.67
2018-09-05T16:21:18.829Z,10.10
2018-09-05T16:23:46.796Z,9.60
2018-09-05T16:26:14.944Z,9.97
2018-09-05T16:28:43.171Z,9.40
2018-09-05T16:31:11.369Z,10.53
2018-09-05T16:33:39.569Z,9.27
2018-09-05T16:36:07.790Z,11.20
2018-09-05T16:38:36.015Z,9.17
2018-09-05T16:41:04.268Z,10.47
2018-09-05T16:43:32.505Z,10.40
2018-09-05T16:46:00.714Z,9.73
2018-09-05T16:48:28.920Z,9.80
2018-09-05T16:50:56.861Z,9.97
2018-09-05T16:53:24.836Z,9.37
2018-09-05T16:55:52.760Z,10.23
2018-09-05T16:58:20.963Z,11.27
2018-09-05T17:00:49.194Z,10.60
2018-09-05T17:03:17.602Z,12.03
2018-09-05T17:05:46.060Z,9.60
2018-09-05T17:08:14.017Z,9.17
2018-09-05T17:10:41.960Z,9.90
2018-09-05T17:13:10.008Z,9.50
2018-09-05T17:15:38.185Z,8.93
2018-09-05T17:18:06.634Z,8.33
2018-09-05T17:20:34.833Z,9.17
2018-09-05T17:23:03.014Z,9.27
2018-09-05T17:25:31.424Z,9.37
2018-09-05T17:27:59.433Z,9.07
2018-09-05T17:30:27.682Z,9.77
2018-09-05T17:32:55.877Z,10.70
2018-09-05T17:35:24.137Z,11.10
2018-09-05T17:37:52.349Z,11.10
2018-09-05T17:40:20.305Z,10.67
2018-09-05T17:42:48.524Z,11.00
2018-09-05T17:45:16.447Z,11.53
2018-09-05T17:47:44.669Z,11.40
2018-09-05T17:50:12.870Z,11.60
2018-09-05T17:52:40.846Z,10.63
2018-09-05T17:55:09.009Z,9.80
2018-09-05T17:57:37.224Z,9.40
2018-09-05T18:00:05.471Z,9.63
2018-09-05T18:02:33.803Z,9.43
2018-09-05T18:05:02.253Z,9.77
2018-09-05T18:07:30.452Z,8.80
2018-09-05T18:09:59.004Z,9.43
2018-09-05T18:12:27.145Z,10.67
2018-09-05T18:14:55.339Z,10.20
2018-09-05T18:17:23.506Z,11.20
2018-09-05T18:19:51.684Z,11.87
2018-09-05T18:22:19.920Z,11.10
2018-09-05T18:24:48.119Z,10.37
2018-09-05T18:27:16.116Z,9.43
2018-09-05T18:29:45.083Z,10.80
2018-09-05T18:32:13.329Z,9.93
2018-09-05T18:34:41.272Z,9.13
2018-09-05T18:37:09.474Z,10.27
2018-09-05T18:39:37.658Z,10.93
2018-09-05T18:42:05.855Z,9.57
2018-09-05T18:44:34.070Z,10.30
2018-09-05T18:47:02.397Z,10.07
2018-09-05T18:49:30.593Z,11.03
2018-09-05T18:51:58.544Z,10.50
2018-09-05T18:54:26.505Z,10.10
2018-09-05T18:56:54.694Z,11.17
2018-09-05T18:59:22.947Z,9.90
2018-09-05T19:01:51.142Z,12.23
2018-09-05T19:04:19.084Z,11.80
2018-09-05T19:06:47.299Z,9.23
2018-09-05T19:09:15.584Z,10.67
2018-09-05T19:11:43.809Z,10.43
2018-09-05T19:14:11.874Z,11.40
2018-09-05T19:16:40.029Z,12.67
2018-09-05T19:19:08.241Z,11.07
2018-09-05T19:21:36.196Z,10.63
2018-09-05T19:24:04.405Z,11.00
2018-09-05T19:26:32.662Z,10.97
2018-09-05T19:29:00.886Z,9.83
2018-09-05T19:31:28.873Z,11.43
2018-09-05T19:33:57.094Z,13.40
2018-09-05T19:36:25.049Z,10.30
2018-09-05T19:38:53.799Z,10.20
2018-09-05T19:41:22.132Z,9.57
2018-09-05T19:43:50.511Z,10.30
2018-09-05T19:46:18.755Z,10.90
2018-09-05T19:48:46.740Z,10.20
2018-09-05T19:51:21.205Z,9.70
2018-09-05T19:53:49.185Z,9.47
2018-09-05T19:56:17.921Z,10.23
2018-09-05T19:58:46.086Z,9.30
2018-09-05T20:01:14.309Z,9.10
2018-09-05T20:03:42.546Z,11.07
2018-09-05T20:06:10.464Z,10.30
2018-09-05T20:08:38.780Z,9.57
2018-09-05T20:11:07.482Z,9.17
2018-09-05T20:13:35.681Z,10.27
2018-09-05T20:16:03.955Z,11.70
2018-09-05T20:18:32.349Z,10.57
2018-09-05T20:21:00.719Z,10.73
2018-09-05T20:23:28.861Z,12.00
2018-09-05T20:25:56.856Z,13.07
2018-09-05T20:28:25.239Z,12.40
2018-09-05T20:30:53.507Z,11.77
2018-09-05T20:33:21.750Z,11.90
2018-09-05T20:35:49.728Z,12.87
2018-09-05T20:38:18.018Z,13.93
2018-09-05T20:40:46.201Z,13.60
2018-09-05T20:43:14.545Z,13.80
2018-09-05T20:45:42.792Z,14.03
2018-09-05T20:48:10.978Z,13.07
2018-09-05T20:50:38.918Z,13.20
2018-09-05T20:53:07.473Z,12.87
2018-09-05T20:55:36.058Z,13.13
2018-09-05T20:58:04.253Z,14.40
2018-09-05T21:00:32.183Z,12.53
2018-09-05T21:03:00.394Z,13.17
2018-09-05T21:05:28.608Z,12.97
2018-09-05T21:07:56.820Z,13.43
2018-09-05T21:10:25.041Z,13.80
2018-09-05T21:12:52.976Z,14.33
2018-09-05T21:15:21.197Z,12.87
2018-09-05T21:17:49.139Z,12.50
2018-09-05T21:20:17.357Z,12.40
2018-09-05T21:22:45.583Z,13.03
2018-09-05T21:27:48.179Z,13.67
2018-09-05T21:30:16.369Z,14.13
2018-09-05T21:32:45.273Z,12.70
2018-09-05T21:35:13.239Z,14.60
2018-09-05T21:37:41.493Z,14.00
2018-09-05T21:40:09.731Z,14.00
2018-09-05T21:42:37.685Z,13.63
2018-09-05T21:45:06.095Z,13.70
2018-09-05T21:47:35.000Z,13.93
2018-09-05T21:50:03.028Z,15.37
2018-09-05T21:52:31.037Z,13.03
2018-09-05T21:54:59.234Z,15.80
2018-09-05T21:57:27.463Z,15.20
2018-09-05T21:59:55.444Z,15.73
